sensor_id;sensor_type;location;lat;lon;timestamp;P1;durP1;ratioP1;P2;durP2;ratioP2
13349;SDS011;6744;53.190;6.576;2022-08-03T00:00:37;4.30;;;1.57;;
13349;SDS011;6744;53.190;6.576;2022-08-03T00:03:03;5.13;;;2.10;;
13349;SDS011;6744;53.190;6.576;2022-08-03T00:05:28;2.80;;;1.67;;
13349;SDS011;6744;53.190;6.576;2022-08-03T00:07:53;3.40;;;1.70;;
13349;SDS011;6744;53.190;6.576;2022-08-03T00:10:19;3.63;;;1.80;;
13349;SDS011;6744;53.190;6.576;2022-08-03T00:12:44;3.97;;;1.83;;
13349;SDS011;6744;53.190;6.576;2022-08-03T00:15:09;4.33;;;1.83;;
13349;SDS011;6744;53.190;6.576;2022-08-03T00:17:35;6.77;;;2.13;;
13349;SDS011;6744;53.190;6.576;2022-08-03T00:20:00;3.60;;;1.77;;
13349;SDS011;6744;53.190;6.576;2022-08-03T00:22:26;3.83;;;1.90;;
13349;SDS011;6744;53.190;6.576;2022-08-03T00:24:51;4.03;;;1.77;;
13349;SDS011;6744;53.190;6.576;2022-08-03T00:27:16;4.03;;;1.97;;
13349;SDS011;6744;53.190;6.576;2022-08-03T00:29:41;4.33;;;1.90;;
13349;SDS011;6744;53.190;6.576;2022-08-03T00:32:07;4.63;;;2.00;;
13349;SDS011;6744;53.190;6.576;2022-08-03T00:34:32;3.80;;;1.83;;
13349;SDS011;6744;53.190;6.576;2022-08-03T00:36:57;3.97;;;2.13;;
13349;SDS011;6744;53.190;6.576;2022-08-03T00:39:23;5.20;;;1.97;;
13349;SDS011;6744;53.190;6.576;2022-08-03T00:41:48;5.00;;;1.90;;
13349;SDS011;6744;53.190;6.576;2022-08-03T00:44:13;4.47;;;1.97;;
13349;SDS011;6744;53.190;6.576;2022-08-03T00:46:39;5.00;;;1.90;;
13349;SDS011;6744;53.190;6.576;2022-08-03T00:49:06;4.53;;;1.90;;
13349;SDS011;6744;53.190;6.576;2022-08-03T00:51:32;4.70;;;1.97;;
13349;SDS011;6744;53.190;6.576;2022-08-03T00:53:57;3.97;;;2.00;;
13349;SDS011;6744;53.190;6.576;2022-08-03T00:56:23;4.67;;;2.00;;
13349;SDS011;6744;53.190;6.576;2022-08-03T00:58:48;4.57;;;2.00;;
13349;SDS011;6744;53.190;6.576;2022-08-03T01:01:14;4.73;;;2.60;;
13349;SDS011;6744;53.190;6.576;2022-08-03T01:03:39;5.73;;;2.40;;
13349;SDS011;6744;53.190;6.576;2022-08-03T01:14:02;5.47;;;2.27;;
13349;SDS011;6744;53.190;6.576;2022-08-03T01:27:17;5.57;;;2.20;;
13349;SDS011;6744;53.190;6.576;2022-08-03T01:29:51;4.27;;;1.87;;
13349;SDS011;6744;53.190;6.576;2022-08-03T01:35:21;4.47;;;2.03;;
13349;SDS011;6744;53.190;6.576;2022-08-03T01:38:10;4.57;;;1.60;;
13349;SDS011;6744;53.190;6.576;2022-08-03T01:40:38;3.27;;;1.57;;
13349;SDS011;6744;53.190;6.576;2022-08-03T01:43:05;4.40;;;1.73;;
13349;SDS011;6744;53.190;6.576;2022-08-03T01:45:32;2.37;;;1.60;;
13349;SDS011;6744;53.190;6.576;2022-08-03T01:47:58;4.10;;;1.57;;
13349;SDS011;6744;53.190;6.576;2022-08-03T01:50:26;4.00;;;1.70;;
13349;SDS011;6744;53.190;6.576;2022-08-03T01:52:52;4.33;;;1.73;;
13349;SDS011;6744;53.190;6.576;2022-08-03T01:55:18;4.53;;;1.60;;
13349;SDS011;6744;53.190;6.576;2022-08-03T01:57:44;3.90;;;1.53;;
13349;SDS011;6744;53.190;6.576;2022-08-03T02:00:12;3.57;;;1.70;;
13349;SDS011;6744;53.190;6.576;2022-08-03T02:02:38;7.43;;;1.77;;
13349;SDS011;6744;53.190;6.576;2022-08-03T02:05:05;2.80;;;1.27;;
13349;SDS011;6744;53.190;6.576;2022-08-03T02:07:31;5.53;;;1.60;;
13349;SDS011;6744;53.190;6.576;2022-08-03T02:09:57;3.77;;;1.50;;
13349;SDS011;6744;53.190;6.576;2022-08-03T02:12:24;2.57;;;1.50;;
13349;SDS011;6744;53.190;6.576;2022-08-03T02:14:49;3.07;;;1.57;;
13349;SDS011;6744;53.190;6.576;2022-08-03T02:17:15;4.53;;;1.80;;
13349;SDS011;6744;53.190;6.576;2022-08-03T02:19:42;5.50;;;1.50;;
13349;SDS011;6744;53.190;6.576;2022-08-03T02:22:09;3.23;;;1.47;;
13349;SDS011;6744;53.190;6.576;2022-08-03T02:24:35;4.57;;;1.80;;
13349;SDS011;6744;53.190;6.576;2022-08-03T02:27:00;3.50;;;1.40;;
13349;SDS011;6744;53.190;6.576;2022-08-03T02:29:30;3.97;;;1.50;;
13349;SDS011;6744;53.190;6.576;2022-08-03T02:31:58;4.17;;;1.70;;
13349;SDS011;6744;53.190;6.576;2022-08-03T02:34:24;3.13;;;1.50;;
13349;SDS011;6744;53.190;6.576;2022-08-03T02:36:51;4.93;;;1.73;;
13349;SDS011;6744;53.190;6.576;2022-08-03T02:39:18;3.73;;;1.70;;
13349;SDS011;6744;53.190;6.576;2022-08-03T02:41:46;4.50;;;1.60;;
13349;SDS011;6744;53.190;6.576;2022-08-03T02:44:14;3.67;;;1.53;;
13349;SDS011;6744;53.190;6.576;2022-08-03T02:46:42;2.40;;;1.40;;
13349;SDS011;6744;53.190;6.576;2022-08-03T02:49:09;5.60;;;1.80;;
13349;SDS011;6744;53.190;6.576;2022-08-03T02:51:36;4.43;;;1.60;;
13349;SDS011;6744;53.190;6.576;2022-08-03T02:54:02;3.63;;;1.60;;
13349;SDS011;6744;53.190;6.576;2022-08-03T02:56:28;3.03;;;1.47;;
13349;SDS011;6744;53.190;6.576;2022-08-03T02:58:54;3.77;;;1.77;;
13349;SDS011;6744;53.190;6.576;2022-08-03T03:01:20;4.47;;;1.70;;
13349;SDS011;6744;53.190;6.576;2022-08-03T03:03:47;4.17;;;1.60;;
13349;SDS011;6744;53.190;6.576;2022-08-03T03:06:14;2.73;;;1.47;;
13349;SDS011;6744;53.190;6.576;2022-08-03T03:08:39;2.87;;;1.60;;
13349;SDS011;6744;53.190;6.576;2022-08-03T03:11:05;2.83;;;1.60;;
13349;SDS011;6744;53.190;6.576;2022-08-03T03:13:31;3.20;;;1.60;;
13349;SDS011;6744;53.190;6.576;2022-08-03T03:16:02;5.83;;;1.60;;
13349;SDS011;6744;53.190;6.576;2022-08-03T03:18:30;3.77;;;1.80;;
13349;SDS011;6744;53.190;6.576;2022-08-03T03:20:56;3.67;;;1.83;;
13349;SDS011;6744;53.190;6.576;2022-08-03T03:23:22;4.50;;;1.70;;
13349;SDS011;6744;53.190;6.576;2022-08-03T03:25:49;4.83;;;1.87;;
13349;SDS011;6744;53.190;6.576;2022-08-03T03:28:15;5.27;;;1.63;;
13349;SDS011;6744;53.190;6.576;2022-08-03T03:30:40;5.37;;;1.97;;
13349;SDS011;6744;53.190;6.576;2022-08-03T03:33:06;5.43;;;2.03;;
13349;SDS011;6744;53.190;6.576;2022-08-03T03:35:32;5.60;;;2.00;;
13349;SDS011;6744;53.190;6.576;2022-08-03T03:37:57;3.07;;;1.70;;
13349;SDS011;6744;53.190;6.576;2022-08-03T03:40:22;3.07;;;1.67;;
13349;SDS011;6744;53.190;6.576;2022-08-03T03:42:49;4.63;;;1.90;;
13349;SDS011;6744;53.190;6.576;2022-08-03T03:45:14;3.33;;;1.87;;
13349;SDS011;6744;53.190;6.576;2022-08-03T03:47:40;3.37;;;1.77;;
13349;SDS011;6744;53.190;6.576;2022-08-03T03:50:06;5.20;;;1.90;;
13349;SDS011;6744;53.190;6.576;2022-08-03T03:52:32;3.87;;;1.77;;
13349;SDS011;6744;53.190;6.576;2022-08-03T03:54:57;4.73;;;2.10;;
13349;SDS011;6744;53.190;6.576;2022-08-03T03:57:23;4.40;;;2.07;;
13349;SDS011;6744;53.190;6.576;2022-08-03T03:59:48;4.23;;;2.00;;
13349;SDS011;6744;53.190;6.576;2022-08-03T04:02:13;8.57;;;2.50;;
13349;SDS011;6744;53.190;6.576;2022-08-03T04:04:39;4.87;;;1.97;;
13349;SDS011;6744;53.190;6.576;2022-08-03T04:07:23;5.33;;;2.13;;
13349;SDS011;6744;53.190;6.576;2022-08-03T04:10:12;6.20;;;2.30;;
13349;SDS011;6744;53.190;6.576;2022-08-03T04:12:59;5.37;;;2.20;;
13349;SDS011;6744;53.190;6.576;2022-08-03T04:15:27;6.27;;;2.30;;
13349;SDS011;6744;53.190;6.576;2022-08-03T04:17:54;4.23;;;2.33;;
13349;SDS011;6744;53.190;6.576;2022-08-03T04:20:22;5.53;;;2.07;;
13349;SDS011;6744;53.190;6.576;2022-08-03T04:22:51;4.17;;;2.37;;
13349;SDS011;6744;53.190;6.576;2022-08-03T04:25:17;5.33;;;2.00;;
13349;SDS011;6744;53.190;6.576;2022-08-03T04:27:43;5.33;;;2.40;;
13349;SDS011;6744;53.190;6.576;2022-08-03T04:30:10;4.80;;;2.30;;
13349;SDS011;6744;53.190;6.576;2022-08-03T04:32:36;5.37;;;1.90;;
13349;SDS011;6744;53.190;6.576;2022-08-03T04:35:03;4.27;;;2.37;;
13349;SDS011;6744;53.190;6.576;2022-08-03T04:37:34;4.30;;;2.07;;
13349;SDS011;6744;53.190;6.576;2022-08-03T04:40:04;3.70;;;1.90;;
13349;SDS011;6744;53.190;6.576;2022-08-03T04:42:32;8.00;;;2.50;;
13349;SDS011;6744;53.190;6.576;2022-08-03T04:44:58;6.37;;;2.33;;
13349;SDS011;6744;53.190;6.576;2022-08-03T04:47:24;4.93;;;2.00;;
13349;SDS011;6744;53.190;6.576;2022-08-03T04:49:50;4.87;;;2.23;;
13349;SDS011;6744;53.190;6.576;2022-08-03T04:52:16;5.30;;;2.27;;
13349;SDS011;6744;53.190;6.576;2022-08-03T04:54:42;4.63;;;2.40;;
13349;SDS011;6744;53.190;6.576;2022-08-03T04:57:09;4.67;;;2.07;;
13349;SDS011;6744;53.190;6.576;2022-08-03T04:59:35;4.53;;;2.50;;
13349;SDS011;6744;53.190;6.576;2022-08-03T05:02:01;5.03;;;2.00;;
13349;SDS011;6744;53.190;6.576;2022-08-03T05:04:26;6.83;;;2.30;;
13349;SDS011;6744;53.190;6.576;2022-08-03T05:06:51;4.70;;;2.10;;
13349;SDS011;6744;53.190;6.576;2022-08-03T05:09:17;5.93;;;2.40;;
13349;SDS011;6744;53.190;6.576;2022-08-03T05:11:42;5.50;;;2.30;;
13349;SDS011;6744;53.190;6.576;2022-08-03T05:14:07;5.80;;;1.80;;
13349;SDS011;6744;53.190;6.576;2022-08-03T05:16:33;5.53;;;2.70;;
13349;SDS011;6744;53.190;6.576;2022-08-03T05:18:58;6.80;;;2.37;;
13349;SDS011;6744;53.190;6.576;2022-08-03T05:21:23;4.20;;;2.00;;
13349;SDS011;6744;53.190;6.576;2022-08-03T05:23:49;6.93;;;2.47;;
13349;SDS011;6744;53.190;6.576;2022-08-03T05:26:14;6.73;;;2.63;;
13349;SDS011;6744;53.190;6.576;2022-08-03T05:28:40;6.07;;;2.60;;
13349;SDS011;6744;53.190;6.576;2022-08-03T05:31:05;7.47;;;2.73;;
13349;SDS011;6744;53.190;6.576;2022-08-03T05:33:31;7.00;;;2.40;;
13349;SDS011;6744;53.190;6.576;2022-08-03T05:35:56;6.30;;;2.37;;
13349;SDS011;6744;53.190;6.576;2022-08-03T05:38:21;7.90;;;2.50;;
13349;SDS011;6744;53.190;6.576;2022-08-03T05:40:47;6.67;;;2.80;;
13349;SDS011;6744;53.190;6.576;2022-08-03T05:43:12;5.63;;;2.50;;
13349;SDS011;6744;53.190;6.576;2022-08-03T05:45:37;8.03;;;2.70;;
13349;SDS011;6744;53.190;6.576;2022-08-03T05:48:06;8.40;;;2.77;;
13349;SDS011;6744;53.190;6.576;2022-08-03T05:50:31;4.33;;;2.03;;
13349;SDS011;6744;53.190;6.576;2022-08-03T05:52:57;5.60;;;2.20;;
13349;SDS011;6744;53.190;6.576;2022-08-03T05:55:22;5.63;;;2.50;;
13349;SDS011;6744;53.190;6.576;2022-08-03T05:57:47;7.17;;;2.40;;
13349;SDS011;6744;53.190;6.576;2022-08-03T06:00:13;5.50;;;2.73;;
13349;SDS011;6744;53.190;6.576;2022-08-03T06:02:39;7.50;;;2.40;;
13349;SDS011;6744;53.190;6.576;2022-08-03T06:05:04;7.33;;;2.50;;
13349;SDS011;6744;53.190;6.576;2022-08-03T06:07:30;9.03;;;2.63;;
13349;SDS011;6744;53.190;6.576;2022-08-03T06:09:56;6.53;;;2.60;;
13349;SDS011;6744;53.190;6.576;2022-08-03T06:12:21;8.40;;;3.20;;
13349;SDS011;6744;53.190;6.576;2022-08-03T06:14:46;8.33;;;2.90;;
13349;SDS011;6744;53.190;6.576;2022-08-03T06:17:12;5.00;;;2.53;;
13349;SDS011;6744;53.190;6.576;2022-08-03T06:19:37;6.53;;;2.80;;
13349;SDS011;6744;53.190;6.576;2022-08-03T06:22:02;8.70;;;2.87;;
13349;SDS011;6744;53.190;6.576;2022-08-03T06:24:28;9.20;;;3.07;;
13349;SDS011;6744;53.190;6.576;2022-08-03T06:26:53;7.30;;;2.70;;
13349;SDS011;6744;53.190;6.576;2022-08-03T06:29:19;10.10;;;3.07;;
13349;SDS011;6744;53.190;6.576;2022-08-03T06:31:44;6.50;;;2.57;;
13349;SDS011;6744;53.190;6.576;2022-08-03T06:34:09;8.10;;;2.70;;
13349;SDS011;6744;53.190;6.576;2022-08-03T06:36:35;7.43;;;2.80;;
13349;SDS011;6744;53.190;6.576;2022-08-03T06:39:00;8.00;;;2.63;;
13349;SDS011;6744;53.190;6.576;2022-08-03T06:41:26;9.10;;;3.00;;
13349;SDS011;6744;53.190;6.576;2022-08-03T06:43:52;7.23;;;2.80;;
13349;SDS011;6744;53.190;6.576;2022-08-03T06:46:18;6.60;;;2.57;;
13349;SDS011;6744;53.190;6.576;2022-08-03T06:48:43;9.83;;;2.50;;
13349;SDS011;6744;53.190;6.576;2022-08-03T06:51:09;9.67;;;3.27;;
13349;SDS011;6744;53.190;6.576;2022-08-03T06:53:34;6.80;;;2.50;;
13349;SDS011;6744;53.190;6.576;2022-08-03T06:56:00;6.83;;;3.00;;
13349;SDS011;6744;53.190;6.576;2022-08-03T06:58:25;6.13;;;2.60;;
13349;SDS011;6744;53.190;6.576;2022-08-03T07:00:50;8.33;;;3.07;;
13349;SDS011;6744;53.190;6.576;2022-08-03T07:03:16;8.90;;;3.03;;
13349;SDS011;6744;53.190;6.576;2022-08-03T07:05:42;7.40;;;3.00;;
13349;SDS011;6744;53.190;6.576;2022-08-03T07:08:09;7.53;;;2.97;;
13349;SDS011;6744;53.190;6.576;2022-08-03T07:10:34;8.70;;;3.10;;
13349;SDS011;6744;53.190;6.576;2022-08-03T07:13:00;8.90;;;2.83;;
13349;SDS011;6744;53.190;6.576;2022-08-03T07:15:26;6.77;;;2.70;;
13349;SDS011;6744;53.190;6.576;2022-08-03T07:17:51;8.33;;;3.10;;
13349;SDS011;6744;53.190;6.576;2022-08-03T07:20:16;7.93;;;2.23;;
13349;SDS011;6744;53.190;6.576;2022-08-03T07:22:42;7.53;;;3.30;;
13349;SDS011;6744;53.190;6.576;2022-08-03T07:25:11;8.30;;;3.33;;
13349;SDS011;6744;53.190;6.576;2022-08-03T07:27:36;6.77;;;2.50;;
13349;SDS011;6744;53.190;6.576;2022-08-03T07:30:04;7.90;;;3.07;;
13349;SDS011;6744;53.190;6.576;2022-08-03T07:32:30;5.33;;;2.70;;
13349;SDS011;6744;53.190;6.576;2022-08-03T07:34:55;6.30;;;2.47;;
13349;SDS011;6744;53.190;6.576;2022-08-03T07:37:21;8.47;;;2.97;;
13349;SDS011;6744;53.190;6.576;2022-08-03T07:39:46;8.00;;;2.83;;
13349;SDS011;6744;53.190;6.576;2022-08-03T07:42:11;8.27;;;2.70;;
13349;SDS011;6744;53.190;6.576;2022-08-03T07:44:37;7.50;;;2.70;;
13349;SDS011;6744;53.190;6.576;2022-08-03T07:47:03;6.33;;;2.30;;
13349;SDS011;6744;53.190;6.576;2022-08-03T07:49:29;6.63;;;2.60;;
13349;SDS011;6744;53.190;6.576;2022-08-03T07:51:54;7.60;;;2.47;;
13349;SDS011;6744;53.190;6.576;2022-08-03T07:54:38;7.53;;;2.73;;
13349;SDS011;6744;53.190;6.576;2022-08-03T07:57:03;7.67;;;2.60;;
13349;SDS011;6744;53.190;6.576;2022-08-03T07:59:29;7.40;;;2.60;;
13349;SDS011;6744;53.190;6.576;2022-08-03T08:01:54;5.90;;;2.60;;
13349;SDS011;6744;53.190;6.576;2022-08-03T08:04:20;7.03;;;2.73;;
13349;SDS011;6744;53.190;6.576;2022-08-03T08:06:46;10.23;;;2.70;;
13349;SDS011;6744;53.190;6.576;2022-08-03T08:09:11;8.33;;;2.60;;
13349;SDS011;6744;53.190;6.576;2022-08-03T08:11:38;8.53;;;2.63;;
13349;SDS011;6744;53.190;6.576;2022-08-03T08:14:03;8.27;;;2.60;;
13349;SDS011;6744;53.190;6.576;2022-08-03T08:16:29;7.10;;;2.30;;
13349;SDS011;6744;53.190;6.576;2022-08-03T08:18:55;6.60;;;2.37;;
13349;SDS011;6744;53.190;6.576;2022-08-03T08:21:20;6.47;;;2.50;;
13349;SDS011;6744;53.190;6.576;2022-08-03T08:23:45;8.93;;;2.70;;
13349;SDS011;6744;53.190;6.576;2022-08-03T08:26:11;4.33;;;2.43;;
13349;SDS011;6744;53.190;6.576;2022-08-03T08:28:36;4.53;;;2.30;;
13349;SDS011;6744;53.190;6.576;2022-08-03T08:31:02;5.03;;;2.30;;
13349;SDS011;6744;53.190;6.576;2022-08-03T08:33:28;7.37;;;2.50;;
13349;SDS011;6744;53.190;6.576;2022-08-03T08:35:53;7.33;;;2.60;;
13349;SDS011;6744;53.190;6.576;2022-08-03T08:38:19;6.30;;;2.23;;
13349;SDS011;6744;53.190;6.576;2022-08-03T08:40:45;6.33;;;2.27;;
13349;SDS011;6744;53.190;6.576;2022-08-03T08:43:10;4.93;;;2.30;;
13349;SDS011;6744;53.190;6.576;2022-08-03T08:45:35;5.17;;;2.20;;
13349;SDS011;6744;53.190;6.576;2022-08-03T08:48:01;7.80;;;2.40;;
13349;SDS011;6744;53.190;6.576;2022-08-03T08:50:27;6.83;;;2.30;;
13349;SDS011;6744;53.190;6.576;2022-08-03T08:52:53;7.07;;;2.57;;
13349;SDS011;6744;53.190;6.576;2022-08-03T08:55:19;5.13;;;2.30;;
13349;SDS011;6744;53.190;6.576;2022-08-03T08:57:48;5.47;;;2.63;;
13349;SDS011;6744;53.190;6.576;2022-08-03T09:00:15;7.03;;;2.37;;
13349;SDS011;6744;53.190;6.576;2022-08-03T09:02:42;4.97;;;2.20;;
13349;SDS011;6744;53.190;6.576;2022-08-03T09:05:11;6.43;;;2.97;;
13349;SDS011;6744;53.190;6.576;2022-08-03T09:07:38;7.47;;;2.53;;
13349;SDS011;6744;53.190;6.576;2022-08-03T09:10:05;7.23;;;2.30;;
13349;SDS011;6744;53.190;6.576;2022-08-03T09:12:36;5.37;;;2.60;;
13349;SDS011;6744;53.190;6.576;2022-08-03T09:15:15;7.03;;;2.77;;
13349;SDS011;6744;53.190;6.576;2022-08-03T09:17:50;6.20;;;2.40;;
13349;SDS011;6744;53.190;6.576;2022-08-03T09:20:21;5.63;;;2.47;;
13349;SDS011;6744;53.190;6.576;2022-08-03T09:22:54;5.87;;;2.70;;
13349;SDS011;6744;53.190;6.576;2022-08-03T09:25:25;7.27;;;2.97;;
13349;SDS011;6744;53.190;6.576;2022-08-03T09:28:04;5.13;;;2.53;;
13349;SDS011;6744;53.190;6.576;2022-08-03T09:30:29;9.83;;;3.00;;
13349;SDS011;6744;53.190;6.576;2022-08-03T09:32:59;6.37;;;3.00;;
13349;SDS011;6744;53.190;6.576;2022-08-03T09:35:28;7.10;;;2.90;;
13349;SDS011;6744;53.190;6.576;2022-08-03T09:40:41;6.47;;;3.00;;
13349;SDS011;6744;53.190;6.576;2022-08-03T09:43:07;5.80;;;2.80;;
13349;SDS011;6744;53.190;6.576;2022-08-03T09:45:34;5.50;;;2.67;;
13349;SDS011;6744;53.190;6.576;2022-08-03T09:48:22;6.00;;;2.70;;
13349;SDS011;6744;53.190;6.576;2022-08-03T09:50:56;7.90;;;2.87;;
13349;SDS011;6744;53.190;6.576;2022-08-03T09:53:25;6.73;;;3.20;;
13349;SDS011;6744;53.190;6.576;2022-08-03T09:55:52;6.23;;;2.90;;
13349;SDS011;6744;53.190;6.576;2022-08-03T09:58:19;8.70;;;3.00;;
13349;SDS011;6744;53.190;6.576;2022-08-03T10:03:31;8.90;;;3.00;;
13349;SDS011;6744;53.190;6.576;2022-08-03T10:05:58;8.63;;;3.40;;
13349;SDS011;6744;53.190;6.576;2022-08-03T10:08:38;8.83;;;3.00;;
13349;SDS011;6744;53.190;6.576;2022-08-03T10:11:04;7.17;;;2.93;;
13349;SDS011;6744;53.190;6.576;2022-08-03T10:13:29;6.40;;;3.00;;
13349;SDS011;6744;53.190;6.576;2022-08-03T10:15:55;7.37;;;3.07;;
13349;SDS011;6744;53.190;6.576;2022-08-03T10:18:20;7.17;;;2.87;;
13349;SDS011;6744;53.190;6.576;2022-08-03T10:20:48;8.03;;;2.80;;
13349;SDS011;6744;53.190;6.576;2022-08-03T10:23:16;9.97;;;3.10;;
13349;SDS011;6744;53.190;6.576;2022-08-03T10:25:43;7.77;;;2.73;;
13349;SDS011;6744;53.190;6.576;2022-08-03T10:28:12;8.80;;;3.30;;
13349;SDS011;6744;53.190;6.576;2022-08-03T10:30:42;6.77;;;3.10;;
13349;SDS011;6744;53.190;6.576;2022-08-03T10:33:12;5.37;;;2.40;;
13349;SDS011;6744;53.190;6.576;2022-08-03T10:35:41;5.87;;;2.40;;
13349;SDS011;6744;53.190;6.576;2022-08-03T10:38:18;9.00;;;2.60;;
13349;SDS011;6744;53.190;6.576;2022-08-03T10:40:45;9.17;;;2.40;;
13349;SDS011;6744;53.190;6.576;2022-08-03T10:43:11;8.83;;;3.07;;
13349;SDS011;6744;53.190;6.576;2022-08-03T10:45:43;7.73;;;3.00;;
13349;SDS011;6744;53.190;6.576;2022-08-03T10:48:08;7.80;;;2.53;;
13349;SDS011;6744;53.190;6.576;2022-08-03T10:50:34;9.13;;;2.63;;
13349;SDS011;6744;53.190;6.576;2022-08-03T10:53:01;9.50;;;2.67;;
13349;SDS011;6744;53.190;6.576;2022-08-03T10:55:35;7.43;;;2.80;;
13349;SDS011;6744;53.190;6.576;2022-08-03T11:01:01;9.83;;;2.87;;
13349;SDS011;6744;53.190;6.576;2022-08-03T11:03:30;10.10;;;3.47;;
13349;SDS011;6744;53.190;6.576;2022-08-03T11:11:35;8.93;;;3.23;;
13349;SDS011;6744;53.190;6.576;2022-08-03T11:16:35;10.50;;;3.03;;
13349;SDS011;6744;53.190;6.576;2022-08-03T11:19:06;7.63;;;3.03;;
13349;SDS011;6744;53.190;6.576;2022-08-03T11:29:38;9.87;;;3.60;;
13349;SDS011;6744;53.190;6.576;2022-08-03T11:35:19;8.97;;;3.33;;
13349;SDS011;6744;53.190;6.576;2022-08-03T11:48:37;10.17;;;3.67;;
13349;SDS011;6744;53.190;6.576;2022-08-03T11:53:45;12.53;;;4.10;;
13349;SDS011;6744;53.190;6.576;2022-08-03T11:56:11;11.23;;;3.90;;
13349;SDS011;6744;53.190;6.576;2022-08-03T11:58:37;15.33;;;4.33;;
13349;SDS011;6744;53.190;6.576;2022-08-03T12:01:10;10.03;;;4.00;;
13349;SDS011;6744;53.190;6.576;2022-08-03T12:03:36;7.40;;;3.70;;
13349;SDS011;6744;53.190;6.576;2022-08-03T12:06:01;12.70;;;3.60;;
13349;SDS011;6744;53.190;6.576;2022-08-03T12:08:32;13.13;;;4.20;;
13349;SDS011;6744;53.190;6.576;2022-08-03T12:10:59;12.90;;;4.00;;
13349;SDS011;6744;53.190;6.576;2022-08-03T12:13:25;13.33;;;3.93;;
13349;SDS011;6744;53.190;6.576;2022-08-03T12:15:54;10.03;;;3.87;;
13349;SDS011;6744;53.190;6.576;2022-08-03T12:18:21;10.37;;;3.90;;
13349;SDS011;6744;53.190;6.576;2022-08-03T12:20:50;10.53;;;3.40;;
13349;SDS011;6744;53.190;6.576;2022-08-03T12:23:17;13.33;;;3.80;;
13349;SDS011;6744;53.190;6.576;2022-08-03T12:25:44;9.63;;;4.03;;
13349;SDS011;6744;53.190;6.576;2022-08-03T12:28:12;11.33;;;3.60;;
13349;SDS011;6744;53.190;6.576;2022-08-03T12:30:43;14.43;;;4.03;;
13349;SDS011;6744;53.190;6.576;2022-08-03T12:35:43;11.03;;;3.87;;
13349;SDS011;6744;53.190;6.576;2022-08-03T12:38:10;11.40;;;3.93;;
13349;SDS011;6744;53.190;6.576;2022-08-03T12:40:36;9.20;;;3.27;;
13349;SDS011;6744;53.190;6.576;2022-08-03T12:43:09;8.87;;;3.63;;
13349;SDS011;6744;53.190;6.576;2022-08-03T12:45:35;11.60;;;3.90;;
13349;SDS011;6744;53.190;6.576;2022-08-03T12:48:00;8.40;;;3.60;;
13349;SDS011;6744;53.190;6.576;2022-08-03T12:50:33;10.43;;;3.63;;
13349;SDS011;6744;53.190;6.576;2022-08-03T12:53:03;10.40;;;3.60;;
13349;SDS011;6744;53.190;6.576;2022-08-03T12:55:30;14.17;;;3.60;;
13349;SDS011;6744;53.190;6.576;2022-08-03T12:57:59;11.10;;;3.93;;
13349;SDS011;6744;53.190;6.576;2022-08-03T13:00:25;9.97;;;3.87;;
13349;SDS011;6744;53.190;6.576;2022-08-03T13:03:25;12.37;;;3.97;;
13349;SDS011;6744;53.190;6.576;2022-08-03T13:05:43;12.27;;;3.80;;
13349;SDS011;6744;53.190;6.576;2022-08-03T13:08:19;10.27;;;3.70;;
13349;SDS011;6744;53.190;6.576;2022-08-03T13:10:46;10.73;;;3.80;;
13349;SDS011;6744;53.190;6.576;2022-08-03T13:13:11;9.03;;;3.83;;
13349;SDS011;6744;53.190;6.576;2022-08-03T13:15:37;9.97;;;4.30;;
13349;SDS011;6744;53.190;6.576;2022-08-03T13:18:02;11.80;;;4.13;;
13349;SDS011;6744;53.190;6.576;2022-08-03T13:20:27;10.40;;;4.97;;
13349;SDS011;6744;53.190;6.576;2022-08-03T13:22:53;14.57;;;5.17;;
13349;SDS011;6744;53.190;6.576;2022-08-03T13:25:18;10.30;;;4.03;;
13349;SDS011;6744;53.190;6.576;2022-08-03T13:27:44;8.77;;;4.70;;
13349;SDS011;6744;53.190;6.576;2022-08-03T13:30:10;13.97;;;4.50;;
13349;SDS011;6744;53.190;6.576;2022-08-03T13:32:35;13.97;;;5.20;;
13349;SDS011;6744;53.190;6.576;2022-08-03T13:35:01;10.83;;;4.20;;
13349;SDS011;6744;53.190;6.576;2022-08-03T13:37:27;10.53;;;4.23;;
13349;SDS011;6744;53.190;6.576;2022-08-03T13:39:53;12.33;;;4.20;;
13349;SDS011;6744;53.190;6.576;2022-08-03T13:42:18;11.10;;;3.80;;
13349;SDS011;6744;53.190;6.576;2022-08-03T13:44:44;9.63;;;4.23;;
13349;SDS011;6744;53.190;6.576;2022-08-03T13:47:09;11.97;;;4.50;;
13349;SDS011;6744;53.190;6.576;2022-08-03T13:49:34;12.23;;;4.10;;
13349;SDS011;6744;53.190;6.576;2022-08-03T13:52:00;9.30;;;4.20;;
13349;SDS011;6744;53.190;6.576;2022-08-03T13:54:26;10.97;;;4.20;;
13349;SDS011;6744;53.190;6.576;2022-08-03T13:56:51;6.80;;;3.77;;
13349;SDS011;6744;53.190;6.576;2022-08-03T13:59:17;9.07;;;3.90;;
13349;SDS011;6744;53.190;6.576;2022-08-03T14:01:46;9.50;;;3.83;;
13349;SDS011;6744;53.190;6.576;2022-08-03T14:04:12;10.40;;;4.20;;
13349;SDS011;6744;53.190;6.576;2022-08-03T14:06:37;8.83;;;3.60;;
13349;SDS011;6744;53.190;6.576;2022-08-03T14:09:03;9.17;;;3.67;;
13349;SDS011;6744;53.190;6.576;2022-08-03T14:11:28;10.60;;;3.87;;
13349;SDS011;6744;53.190;6.576;2022-08-03T14:13:53;9.83;;;3.73;;
13349;SDS011;6744;53.190;6.576;2022-08-03T14:16:19;8.90;;;4.00;;
13349;SDS011;6744;53.190;6.576;2022-08-03T14:18:44;9.30;;;4.23;;
13349;SDS011;6744;53.190;6.576;2022-08-03T14:21:10;9.97;;;3.80;;
13349;SDS011;6744;53.190;6.576;2022-08-03T14:23:36;11.53;;;3.90;;
13349;SDS011;6744;53.190;6.576;2022-08-03T14:26:02;8.70;;;4.43;;
13349;SDS011;6744;53.190;6.576;2022-08-03T14:28:28;9.90;;;4.30;;
13349;SDS011;6744;53.190;6.576;2022-08-03T14:30:54;6.97;;;3.70;;
13349;SDS011;6744;53.190;6.576;2022-08-03T14:33:20;8.70;;;4.13;;
13349;SDS011;6744;53.190;6.576;2022-08-03T14:35:46;7.50;;;3.83;;
13349;SDS011;6744;53.190;6.576;2022-08-03T14:38:11;10.67;;;4.17;;
13349;SDS011;6744;53.190;6.576;2022-08-03T14:40:37;9.40;;;4.23;;
13349;SDS011;6744;53.190;6.576;2022-08-03T14:43:02;7.30;;;3.80;;
13349;SDS011;6744;53.190;6.576;2022-08-03T14:45:28;11.13;;;3.80;;
13349;SDS011;6744;53.190;6.576;2022-08-03T14:47:53;8.87;;;4.03;;
13349;SDS011;6744;53.190;6.576;2022-08-03T14:50:18;8.70;;;4.10;;
13349;SDS011;6744;53.190;6.576;2022-08-03T14:52:44;8.20;;;4.30;;
13349;SDS011;6744;53.190;6.576;2022-08-03T14:55:09;7.23;;;3.83;;
13349;SDS011;6744;53.190;6.576;2022-08-03T14:57:35;12.23;;;4.57;;
13349;SDS011;6744;53.190;6.576;2022-08-03T15:00:00;8.67;;;4.10;;
13349;SDS011;6744;53.190;6.576;2022-08-03T15:02:25;8.23;;;3.70;;
13349;SDS011;6744;53.190;6.576;2022-08-03T15:04:52;7.20;;;3.37;;
13349;SDS011;6744;53.190;6.576;2022-08-03T15:07:18;8.47;;;3.60;;
13349;SDS011;6744;53.190;6.576;2022-08-03T15:09:44;8.50;;;3.57;;
13349;SDS011;6744;53.190;6.576;2022-08-03T15:12:09;6.90;;;3.70;;
13349;SDS011;6744;53.190;6.576;2022-08-03T15:14:37;7.87;;;3.80;;
13349;SDS011;6744;53.190;6.576;2022-08-03T15:17:02;7.13;;;3.73;;
13349;SDS011;6744;53.190;6.576;2022-08-03T15:19:28;6.30;;;3.23;;
13349;SDS011;6744;53.190;6.576;2022-08-03T15:21:53;7.43;;;3.70;;
13349;SDS011;6744;53.190;6.576;2022-08-03T15:24:18;6.90;;;3.43;;
13349;SDS011;6744;53.190;6.576;2022-08-03T15:26:44;8.33;;;3.73;;
13349;SDS011;6744;53.190;6.576;2022-08-03T15:29:09;7.17;;;3.90;;
13349;SDS011;6744;53.190;6.576;2022-08-03T15:31:35;8.47;;;3.50;;
13349;SDS011;6744;53.190;6.576;2022-08-03T15:34:00;7.13;;;3.87;;
13349;SDS011;6744;53.190;6.576;2022-08-03T15:36:25;5.93;;;3.40;;
13349;SDS011;6744;53.190;6.576;2022-08-03T15:38:51;8.57;;;4.10;;
13349;SDS011;6744;53.190;6.576;2022-08-03T15:41:17;6.40;;;3.40;;
13349;SDS011;6744;53.190;6.576;2022-08-03T15:43:42;9.03;;;3.90;;
13349;SDS011;6744;53.190;6.576;2022-08-03T15:46:10;6.43;;;3.63;;
13349;SDS011;6744;53.190;6.576;2022-08-03T15:48:35;8.40;;;4.00;;
13349;SDS011;6744;53.190;6.576;2022-08-03T15:51:01;7.27;;;3.63;;
13349;SDS011;6744;53.190;6.576;2022-08-03T15:53:26;5.90;;;3.50;;
13349;SDS011;6744;53.190;6.576;2022-08-03T15:55:51;6.70;;;3.57;;
13349;SDS011;6744;53.190;6.576;2022-08-03T15:58:17;7.07;;;3.67;;
13349;SDS011;6744;53.190;6.576;2022-08-03T16:00:42;8.83;;;3.70;;
13349;SDS011;6744;53.190;6.576;2022-08-03T16:03:08;7.17;;;3.80;;